sensor_id;sensor_type;location;lat;lon;timestamp;pressure;altitude;pressure_sealevel;temperature;humidity
29371;BME280;16357;52.188;7.838;2023-12-14T00:01:53;100052.78;;;8.15;68.96
29371;BME280;16357;52.188;7.838;2023-12-14T00:04:20;100054.63;;;8.14;69.30
29371;BME280;16357;52.188;7.838;2023-12-14T00:06:46;100057.44;;;8.13;69.58
29371;BME280;16357;52.188;7.838;2023-12-14T00:09:13;100053.94;;;8.12;69.33
29371;BME280;16357;52.188;7.838;2023-12-14T00:11:39;100055.78;;;8.12;69.62
29371;BME280;16357;52.188;7.838;2023-12-14T00:14:06;100068.13;;;8.13;69.29
29371;BME280;16357;52.188;7.838;2023-12-14T00:16:33;100063.94;;;8.10;69.54
29371;BME280;16357;52.188;7.838;2023-12-14T00:19:00;100065.94;;;8.08;69.54
29371;BME280;16357;52.188;7.838;2023-12-14T00:21:26;100076.78;;;8.07;69.45
29371;BME280;16357;52.188;7.838;2023-12-14T00:23:53;100088.47;;;8.06;69.54
29371;BME280;16357;52.188;7.838;2023-12-14T00:26:19;100085.94;;;8.04;69.22
29371;BME280;16357;52.188;7.838;2023-12-14T00:28:46;100095.94;;;8.02;69.49
29371;BME280;16357;52.188;7.838;2023-12-14T00:31:13;100100.75;;;7.99;69.56
29371;BME280;16357;52.188;7.838;2023-12-14T00:33:39;100103.75;;;7.96;69.26
29371;BME280;16357;52.188;7.838;2023-12-14T00:36:06;100102.06;;;7.95;69.52
29371;BME280;16357;52.188;7.838;2023-12-14T00:38:33;100108.53;;;7.92;69.54
29371;BME280;16357;52.188;7.838;2023-12-14T00:41:00;100108.03;;;7.88;69.62
29371;BME280;16357;52.188;7.838;2023-12-14T00:43:27;100110.84;;;7.87;69.58
29371;BME280;16357;52.188;7.838;2023-12-14T00:45:53;100118.00;;;7.86;69.66
29371;BME280;16357;52.188;7.838;2023-12-14T00:48:20;100109.16;;;7.86;69.92
29371;BME280;16357;52.188;7.838;2023-12-14T00:50:46;100118.00;;;7.86;69.99
29371;BME280;16357;52.188;7.838;2023-12-14T00:53:13;100115.34;;;7.86;69.81
29371;BME280;16357;52.188;7.838;2023-12-14T00:55:39;100115.34;;;7.86;69.66
29371;BME280;16357;52.188;7.838;2023-12-14T00:58:06;100132.38;;;7.85;69.17
29371;BME280;16357;52.188;7.838;2023-12-14T01:00:33;100132.50;;;7.84;69.51
29371;BME280;16357;52.188;7.838;2023-12-14T01:02:59;100143.19;;;7.84;69.27
29371;BME280;16357;52.188;7.838;2023-12-14T01:05:26;100144.34;;;7.81;69.56
29371;BME280;16357;52.188;7.838;2023-12-14T01:07:52;100151.38;;;7.82;69.34
29371;BME280;16357;52.188;7.838;2023-12-14T01:10:19;100163.03;;;7.81;69.51
29371;BME280;16357;52.188;7.838;2023-12-14T01:12:46;100164.88;;;7.81;69.05
29371;BME280;16357;52.188;7.838;2023-12-14T01:15:12;100174.72;;;7.80;69.04
29371;BME280;16357;52.188;7.838;2023-12-14T01:17:39;100181.03;;;7.79;69.17
29371;BME280;16357;52.188;7.838;2023-12-14T01:20:06;100185.69;;;7.77;69.22
29371;BME280;16357;52.188;7.838;2023-12-14T01:22:34;100206.38;;;7.75;69.15
29371;BME280;16357;52.188;7.838;2023-12-14T01:25:01;100205.66;;;7.73;69.13
29371;BME280;16357;52.188;7.838;2023-12-14T01:27:27;100222.00;;;7.70;68.46
29371;BME280;16357;52.188;7.838;2023-12-14T01:29:54;100219.47;;;7.68;69.08
29371;BME280;16357;52.188;7.838;2023-12-14T01:32:20;100218.94;;;7.65;69.07
29371;BME280;16357;52.188;7.838;2023-12-14T01:34:47;100220.91;;;7.63;68.65
29371;BME280;16357;52.188;7.838;2023-12-14T01:37:13;100226.56;;;7.60;68.99
29371;BME280;16357;52.188;7.838;2023-12-14T01:39:40;100233.88;;;7.58;69.06
29371;BME280;16357;52.188;7.838;2023-12-14T01:42:06;100230.66;;;7.54;69.06
29371;BME280;16357;52.188;7.838;2023-12-14T01:44:33;100229.13;;;7.52;69.01
29371;BME280;16357;52.188;7.838;2023-12-14T01:47:00;100235.91;;;7.46;69.08
29371;BME280;16357;52.188;7.838;2023-12-14T01:49:26;100231.72;;;7.43;69.23
29371;BME280;16357;52.188;7.838;2023-12-14T01:51:53;100235.66;;;7.39;69.19
29371;BME280;16357;52.188;7.838;2023-12-14T01:54:20;100237.66;;;7.37;69.12
29371;BME280;16357;52.188;7.838;2023-12-14T01:56:46;100251.25;;;7.34;69.57
29371;BME280;16357;52.188;7.838;2023-12-14T01:59:13;100259.28;;;7.34;69.82
29371;BME280;16357;52.188;7.838;2023-12-14T02:01:43;100254.94;;;7.33;69.54
29371;BME280;16357;52.188;7.838;2023-12-14T02:04:10;100264.91;;;7.31;69.41
29371;BME280;16357;52.188;7.838;2023-12-14T02:06:37;100265.06;;;7.30;69.32
29371;BME280;16357;52.188;7.838;2023-12-14T02:09:04;100270.53;;;7.28;69.20
29371;BME280;16357;52.188;7.838;2023-12-14T02:11:31;100275.19;;;7.26;69.48
29371;BME280;16357;52.188;7.838;2023-12-14T02:14:03;100279.81;;;7.24;69.11
29371;BME280;16357;52.188;7.838;2023-12-14T02:16:29;100285.31;;;7.22;69.51
29371;BME280;16357;52.188;7.838;2023-12-14T02:18:58;100291.66;;;7.21;69.27
29371;BME280;16357;52.188;7.838;2023-12-14T02:21:24;100296.13;;;7.21;69.41
29371;BME280;16357;52.188;7.838;2023-12-14T02:23:51;100305.13;;;7.20;69.41
29371;BME280;16357;52.188;7.838;2023-12-14T02:26:18;100299.78;;;7.20;69.16
29371;BME280;16357;52.188;7.838;2023-12-14T02:28:44;100313.13;;;7.20;68.73
29371;BME280;16357;52.188;7.838;2023-12-14T02:31:11;100309.75;;;7.18;69.23
29371;BME280;16357;52.188;7.838;2023-12-14T02:33:37;100313.41;;;7.17;69.47
29371;BME280;16357;52.188;7.838;2023-12-14T02:36:04;100320.41;;;7.18;69.69
29371;BME280;16357;52.188;7.838;2023-12-14T02:38:31;100324.78;;;7.19;69.52
29371;BME280;16357;52.188;7.838;2023-12-14T02:40:58;100328.28;;;7.19;69.23
29371;BME280;16357;52.188;7.838;2023-12-14T02:43:25;100328.13;;;7.21;69.33
29371;BME280;16357;52.188;7.838;2023-12-14T02:45:51;100329.84;;;7.22;69.40
29371;BME280;16357;52.188;7.838;2023-12-14T02:48:18;100339.50;;;7.23;69.16
29371;BME280;16357;52.188;7.838;2023-12-14T02:50:44;100342.16;;;7.23;69.05
29371;BME280;16357;52.188;7.838;2023-12-14T02:53:11;100338.78;;;7.21;68.88
29371;BME280;16357;52.188;7.838;2023-12-14T02:55:38;100338.78;;;7.21;68.97
29371;BME280;16357;52.188;7.838;2023-12-14T02:58:05;100345.00;;;7.21;68.89
29371;BME280;16357;52.188;7.838;2023-12-14T03:00:32;100345.13;;;7.20;69.22
29371;BME280;16357;52.188;7.838;2023-12-14T03:02:58;100347.81;;;7.20;69.12
29371;BME280;16357;52.188;7.838;2023-12-14T03:05:25;100345.25;;;7.18;68.89
29371;BME280;16357;52.188;7.838;2023-12-14T03:07:52;100350.75;;;7.17;68.88
29371;BME280;16357;52.188;7.838;2023-12-14T03:10:18;100346.41;;;7.16;69.01
29371;BME280;16357;52.188;7.838;2023-12-14T03:12:45;100351.06;;;7.14;68.82
29371;BME280;16357;52.188;7.838;2023-12-14T03:15:12;100358.19;;;7.13;69.11
29371;BME280;16357;52.188;7.838;2023-12-14T03:17:38;100361.03;;;7.12;68.78
29371;BME280;16357;52.188;7.838;2023-12-14T03:20:06;100352.19;;;7.11;69.21
29371;BME280;16357;52.188;7.838;2023-12-14T03:22:33;100354.84;;;7.11;68.54
29371;BME280;16357;52.188;7.838;2023-12-14T03:25:00;100354.97;;;7.10;68.90
29371;BME280;16357;52.188;7.838;2023-12-14T03:27:27;100362.97;;;7.10;68.78
29371;BME280;16357;52.188;7.838;2023-12-14T03:29:53;100361.97;;;7.11;68.84
29371;BME280;16357;52.188;7.838;2023-12-14T03:32:20;100369.16;;;7.10;68.59
29371;BME280;16357;52.188;7.838;2023-12-14T03:34:46;100377.03;;;7.12;68.98
29371;BME280;16357;52.188;7.838;2023-12-14T03:37:13;100389.38;;;7.13;69.05
29371;BME280;16357;52.188;7.838;2023-12-14T03:39:40;100400.88;;;7.13;68.90
29371;BME280;16357;52.188;7.838;2023-12-14T03:42:06;100407.06;;;7.14;68.48
29371;BME280;16357;52.188;7.838;2023-12-14T03:44:33;100393.56;;;7.15;68.32
29371;BME280;16357;52.188;7.838;2023-12-14T03:46:59;100406.06;;;7.15;68.82
29371;BME280;16357;52.188;7.838;2023-12-14T03:49:26;100413.09;;;7.16;68.15
29371;BME280;16357;52.188;7.838;2023-12-14T03:51:53;100415.75;;;7.16;68.64
29371;BME280;16357;52.188;7.838;2023-12-14T03:54:19;100417.59;;;7.15;68.63
29371;BME280;16357;52.188;7.838;2023-12-14T03:56:46;100418.41;;;7.16;68.48
29371;BME280;16357;52.188;7.838;2023-12-14T03:59:13;100429.78;;;7.18;68.30
29371;BME280;16357;52.188;7.838;2023-12-14T04:01:39;100432.34;;;7.19;68.65
29371;BME280;16357;52.188;7.838;2023-12-14T04:04:06;100431.50;;;7.19;68.51
29371;BME280;16357;52.188;7.838;2023-12-14T04:06:33;100434.16;;;7.19;68.24
29371;BME280;16357;52.188;7.838;2023-12-14T04:09:00;100441.31;;;7.18;68.33
29371;BME280;16357;52.188;7.838;2023-12-14T04:11:27;100442.16;;;7.19;68.16
29371;BME280;16357;52.188;7.838;2023-12-14T04:13:53;100446.63;;;7.18;68.12
29371;BME280;16357;52.188;7.838;2023-12-14T04:16:21;100447.50;;;7.19;68.36
29371;BME280;16357;52.188;7.838;2023-12-14T04:18:51;100454.50;;;7.20;68.56
29371;BME280;16357;52.188;7.838;2023-12-14T04:21:18;100464.34;;;7.19;68.33
29371;BME280;16357;52.188;7.838;2023-12-14T04:23:45;100470.50;;;7.20;68.22
29371;BME280;16357;52.188;7.838;2023-12-14T04:26:12;100481.19;;;7.20;68.11
29371;BME280;16357;52.188;7.838;2023-12-14T04:28:40;100478.66;;;7.18;68.34
29371;BME280;16357;52.188;7.838;2023-12-14T04:31:10;100484.84;;;7.19;68.30
29371;BME280;16357;52.188;7.838;2023-12-14T04:33:37;100486.53;;;7.20;68.00
29371;BME280;16357;52.188;7.838;2023-12-14T04:36:04;100488.34;;;7.19;68.30
29371;BME280;16357;52.188;7.838;2023-12-14T04:38:31;100494.53;;;7.20;68.12
29371;BME280;16357;52.188;7.838;2023-12-14T04:40:57;100501.53;;;7.21;67.52
29371;BME280;16357;52.188;7.838;2023-12-14T04:43:24;100507.88;;;7.20;67.75
29371;BME280;16357;52.188;7.838;2023-12-14T04:45:50;100518.53;;;7.20;67.72
29371;BME280;16357;52.188;7.838;2023-12-14T04:48:17;100522.19;;;7.19;67.53
29371;BME280;16357;52.188;7.838;2023-12-14T04:50:44;100525.13;;;7.16;67.31
29371;BME280;16357;52.188;7.838;2023-12-14T04:53:10;100520.78;;;7.15;67.66
29371;BME280;16357;52.188;7.838;2023-12-14T04:55:37;100518.13;;;7.15;67.85
29371;BME280;16357;52.188;7.838;2023-12-14T04:58:04;100513.78;;;7.14;67.74
29371;BME280;16357;52.188;7.838;2023-12-14T05:00:30;100523.56;;;7.13;67.62
29371;BME280;16357;52.188;7.838;2023-12-14T05:02:57;100532.44;;;7.14;67.59
29371;BME280;16357;52.188;7.838;2023-12-14T05:05:23;100524.44;;;7.14;67.81
29371;BME280;16357;52.188;7.838;2023-12-14T05:07:50;100531.44;;;7.15;67.81
29371;BME280;16357;52.188;7.838;2023-12-14T05:10:16;100536.78;;;7.15;67.54
29371;BME280;16357;52.188;7.838;2023-12-14T05:12:43;100528.66;;;7.16;67.18
29371;BME280;16357;52.188;7.838;2023-12-14T05:15:10;100531.44;;;7.15;67.17
29371;BME280;16357;52.188;7.838;2023-12-14T05:17:37;100541.28;;;7.14;67.46
29371;BME280;16357;52.188;7.838;2023-12-14T05:20:07;100545.63;;;7.15;67.35
29371;BME280;16357;52.188;7.838;2023-12-14T05:22:34;100546.47;;;7.16;67.96
29371;BME280;16357;52.188;7.838;2023-12-14T05:25:02;100556.00;;;7.18;67.85
29371;BME280;16357;52.188;7.838;2023-12-14T05:27:28;100555.88;;;7.20;67.56
29371;BME280;16357;52.188;7.838;2023-12-14T05:29:55;100560.22;;;7.21;67.54
29371;BME280;16357;52.188;7.838;2023-12-14T05:32:21;100559.09;;;7.23;67.05
29371;BME280;16357;52.188;7.838;2023-12-14T05:34:48;100561.66;;;7.25;66.99
29371;BME280;16357;52.188;7.838;2023-12-14T05:37:14;100575.00;;;7.25;66.61
29371;BME280;16357;52.188;7.838;2023-12-14T05:39:42;100578.63;;;7.24;66.60
29371;BME280;16357;52.188;7.838;2023-12-14T05:42:09;100569.09;;;7.21;66.46
29371;BME280;16357;52.188;7.838;2023-12-14T05:44:36;100583.56;;;7.19;66.36
29371;BME280;16357;52.188;7.838;2023-12-14T05:47:02;100591.81;;;7.16;66.56
29371;BME280;16357;52.188;7.838;2023-12-14T05:49:29;100589.44;;;7.13;66.20
29371;BME280;16357;52.188;7.838;2023-12-14T05:51:58;100591.38;;;7.11;66.42
29371;BME280;16357;52.188;7.838;2023-12-14T05:54:25;100597.84;;;7.08;66.53
29371;BME280;16357;52.188;7.838;2023-12-14T05:56:52;100603.31;;;7.07;66.49
29371;BME280;16357;52.188;7.838;2023-12-14T05:59:18;100600.94;;;7.03;66.19
29371;BME280;16357;52.188;7.838;2023-12-14T06:01:45;100614.41;;;7.02;66.26
29371;BME280;16357;52.188;7.838;2023-12-14T06:04:12;100608.34;;;7.00;66.31
29371;BME280;16357;52.188;7.838;2023-12-14T06:06:38;100616.50;;;6.98;66.52
29371;BME280;16357;52.188;7.838;2023-12-14T06:09:06;100608.50;;;6.98;66.87
29371;BME280;16357;52.188;7.838;2023-12-14T06:11:33;100612.13;;;6.97;66.55
29371;BME280;16357;52.188;7.838;2023-12-14T06:14:00;100617.47;;;6.97;66.37
29371;BME280;16357;52.188;7.838;2023-12-14T06:16:27;100622.69;;;6.99;66.25
29371;BME280;16357;52.188;7.838;2023-12-14T06:18:53;100625.47;;;6.97;66.35
29371;BME280;16357;52.188;7.838;2023-12-14T06:21:20;100641.47;;;6.97;66.44
29371;BME280;16357;52.188;7.838;2023-12-14T06:23:47;100647.66;;;6.98;65.98
29371;BME280;16357;52.188;7.838;2023-12-14T06:26:17;100649.47;;;6.97;66.04
29371;BME280;16357;52.188;7.838;2023-12-14T06:28:44;100653.00;;;6.98;66.61
29371;BME280;16357;52.188;7.838;2023-12-14T06:31:14;100666.19;;;6.99;66.31
29371;BME280;16357;52.188;7.838;2023-12-14T06:33:41;100667.91;;;7.00;65.86
29371;BME280;16357;52.188;7.838;2023-12-14T06:36:08;100669.56;;;7.01;66.09
29371;BME280;16357;52.188;7.838;2023-12-14T06:38:38;100678.41;;;7.02;65.96
29371;BME280;16357;52.188;7.838;2023-12-14T06:41:06;100678.41;;;7.02;66.07
29371;BME280;16357;52.188;7.838;2023-12-14T06:43:32;100689.91;;;7.02;65.30
29371;BME280;16357;52.188;7.838;2023-12-14T06:45:59;100701.56;;;7.01;65.13
29371;BME280;16357;52.188;7.838;2023-12-14T06:48:26;100707.91;;;7.00;65.66
29371;BME280;16357;52.188;7.838;2023-12-14T06:50:53;100712.53;;;6.98;65.50
29371;BME280;16357;52.188;7.838;2023-12-14T06:53:21;100724.28;;;6.96;65.42
29371;BME280;16357;52.188;7.838;2023-12-14T06:55:48;100729.75;;;6.94;65.14
29371;BME280;16357;52.188;7.838;2023-12-14T06:58:14;100730.03;;;6.91;65.34
29371;BME280;16357;52.188;7.838;2023-12-14T07:00:41;100740.13;;;6.88;65.21
29371;BME280;16357;52.188;7.838;2023-12-14T07:03:08;100750.19;;;6.84;65.09
29371;BME280;16357;52.188;7.838;2023-12-14T07:05:35;100751.28;;;6.81;64.67
29371;BME280;16357;52.188;7.838;2023-12-14T07:08:03;100746.38;;;6.77;64.51
29371;BME280;16357;52.188;7.838;2023-12-14T07:10:30;100751.94;;;6.74;64.90
29371;BME280;16357;52.188;7.838;2023-12-14T07:12:56;100753.19;;;6.70;64.90
29371;BME280;16357;52.188;7.838;2023-12-14T07:15:23;100752.63;;;6.66;64.59
29371;BME280;16357;52.188;7.838;2023-12-14T07:17:50;100754.69;;;6.63;65.15
29371;BME280;16357;52.188;7.838;2023-12-14T07:20:16;100776.28;;;6.59;64.86
29371;BME280;16357;52.188;7.838;2023-12-14T07:22:43;100773.88;;;6.56;65.43
29371;BME280;16357;52.188;7.838;2023-12-14T07:25:10;100784.53;;;6.56;65.38
29371;BME280;16357;52.188;7.838;2023-12-14T07:27:36;100790.84;;;6.55;65.65
29371;BME280;16357;52.188;7.838;2023-12-14T07:30:03;100805.03;;;6.56;65.64
29371;BME280;16357;52.188;7.838;2023-12-14T07:32:30;100807.53;;;6.57;65.64
29371;BME280;16357;52.188;7.838;2023-12-14T07:34:56;100809.25;;;6.58;65.39
29371;BME280;16357;52.188;7.838;2023-12-14T07:37:23;100811.91;;;6.58;65.74
29371;BME280;16357;52.188;7.838;2023-12-14T07:39:49;100808.25;;;6.59;65.50
29371;BME280;16357;52.188;7.838;2023-12-14T07:42:17;100815.28;;;6.60;65.32
29371;BME280;16357;52.188;7.838;2023-12-14T07:44:46;100827.66;;;6.62;65.55
29371;BME280;16357;52.188;7.838;2023-12-14T07:47:13;100824.00;;;6.63;65.45
29371;BME280;16357;52.188;7.838;2023-12-14T07:49:40;100828.38;;;6.64;65.65
29371;BME280;16357;52.188;7.838;2023-12-14T07:52:10;100827.38;;;6.65;65.64
29371;BME280;16357;52.188;7.838;2023-12-14T07:54:36;100832.47;;;6.68;65.73
29371;BME280;16357;52.188;7.838;2023-12-14T07:57:03;100840.44;;;6.68;65.38
29371;BME280;16357;52.188;7.838;2023-12-14T07:59:29;100841.19;;;6.70;65.50
29371;BME280;16357;52.188;7.838;2023-12-14T08:01:56;100845.53;;;6.71;65.56
29371;BME280;16357;52.188;7.838;2023-12-14T08:04:23;100846.25;;;6.73;65.76
29371;BME280;16357;52.188;7.838;2023-12-14T08:06:49;100847.94;;;6.74;65.26
29371;BME280;16357;52.188;7.838;2023-12-14T08:09:16;100855.81;;;6.75;65.15
29371;BME280;16357;52.188;7.838;2023-12-14T08:11:43;100863.53;;;6.78;65.30
29371;BME280;16357;52.188;7.838;2023-12-14T08:14:09;100858.22;;;6.78;65.76
29371;BME280;16357;52.188;7.838;2023-12-14T08:16:36;100857.25;;;6.79;65.34
29371;BME280;16357;52.188;7.838;2023-12-14T08:19:03;100862.59;;;6.79;65.13
29371;BME280;16357;52.188;7.838;2023-12-14T08:21:29;100864.28;;;6.80;65.58
29371;BME280;16357;52.188;7.838;2023-12-14T08:23:56;100873.09;;;6.81;65.41
29371;BME280;16357;52.188;7.838;2023-12-14T08:26:22;100874.09;;;6.80;65.29
29371;BME280;16357;52.188;7.838;2023-12-14T08:28:49;100881.00;;;6.82;65.24
29371;BME280;16357;52.188;7.838;2023-12-14T08:31:16;100883.66;;;6.82;65.46
29371;BME280;16357;52.188;7.838;2023-12-14T08:33:42;100887.03;;;6.85;65.11
29371;BME280;16357;52.188;7.838;2023-12-14T08:36:17;100900.13;;;6.88;65.17
29371;BME280;16357;52.188;7.838;2023-12-14T08:38:44;100898.28;;;6.88;65.13
29371;BME280;16357;52.188;7.838;2023-12-14T08:41:14;100907.00;;;6.90;64.67
29371;BME280;16357;52.188;7.838;2023-12-14T08:43:42;100915.72;;;6.92;64.73
29371;BME280;16357;52.188;7.838;2023-12-14T08:46:09;100917.41;;;6.93;65.10
29371;BME280;16357;52.188;7.838;2023-12-14T08:48:36;100918.16;;;6.95;65.08
29371;BME280;16357;52.188;7.838;2023-12-14T08:51:04;100927.72;;;6.98;64.77
29371;BME280;16357;52.188;7.838;2023-12-14T08:53:31;100924.06;;;6.99;65.17
29371;BME280;16357;52.188;7.838;2023-12-14T08:55:58;100929.97;;;7.02;64.67
29371;BME280;16357;52.188;7.838;2023-12-14T08:58:25;100927.03;;;7.06;64.54
29371;BME280;16357;52.188;7.838;2023-12-14T09:00:52;100925.81;;;7.10;64.84
29371;BME280;16357;52.188;7.838;2023-12-14T09:03:19;100922.03;;;7.12;65.08
29371;BME280;16357;52.188;7.838;2023-12-14T09:05:46;100932.44;;;7.15;64.59
29371;BME280;16357;52.188;7.838;2023-12-14T09:08:13;100933.91;;;7.19;64.87
29371;BME280;16357;52.188;7.838;2023-12-14T09:10:39;100949.50;;;7.24;64.42
29371;BME280;16357;52.188;7.838;2023-12-14T09:13:06;100951.94;;;7.27;63.99
29371;BME280;16357;52.188;7.838;2023-12-14T09:15:33;100956.16;;;7.30;64.29
29371;BME280;16357;52.188;7.838;2023-12-14T09:18:00;100965.72;;;7.32;64.28
29371;BME280;16357;52.188;7.838;2023-12-14T09:20:27;100972.63;;;7.35;64.08
29371;BME280;16357;52.188;7.838;2023-12-14T09:22:53;100978.81;;;7.35;63.82
29371;BME280;16357;52.188;7.838;2023-12-14T09:25:20;100976.88;;;7.37;64.37
29371;BME280;16357;52.188;7.838;2023-12-14T09:27:47;100979.28;;;7.40;64.06
29371;BME280;16357;52.188;7.838;2023-12-14T09:30:13;100978.28;;;7.41;63.73
29371;BME280;16357;52.188;7.838;2023-12-14T09:32:40;100975.34;;;7.44;63.75
29371;BME280;16357;52.188;7.838;2023-12-14T09:35:08;100972.56;;;7.46;64.20
29371;BME280;16357;52.188;7.838;2023-12-14T09:37:34;100994.50;;;7.50;64.41
29371;BME280;16357;52.188;7.838;2023-12-14T09:40:02;100999.44;;;7.54;64.09
29371;BME280;16357;52.188;7.838;2023-12-14T09:42:37;101004.41;;;7.59;63.96
29371;BME280;16357;52.188;7.838;2023-12-14T09:45:04;101002.31;;;7.62;64.00
29371;BME280;16357;52.188;7.838;2023-12-14T09:47:32;101003.75;;;7.66;63.82
29371;BME280;16357;52.188;7.838;2023-12-14T09:50:00;101009.66;;;7.70;64.13
29371;BME280;16357;52.188;7.838;2023-12-14T09:52:27;101010.13;;;7.75;63.97
29371;BME280;16357;52.188;7.838;2023-12-14T09:54:53;101016.03;;;7.79;63.47
29371;BME280;16357;52.188;7.838;2023-12-14T09:57:22;101009.59;;;7.81;63.74
29371;BME280;16357;52.188;7.838;2023-12-14T09:59:55;101012.72;;;7.86;64.07
29371;BME280;16357;52.188;7.838;2023-12-14T10:02:26;101013.31;;;7.90;64.12
29371;BME280;16357;52.188;7.838;2023-12-14T10:04:55;101012.19;;;7.93;63.96
29371;BME280;16357;52.188;7.838;2023-12-14T10:07:24;101020.63;;;7.98;63.64
29371;BME280;16357;52.188;7.838;2023-12-14T10:09:50;101019.41;;;8.02;63.48
29371;BME280;16357;52.188;7.838;2023-12-14T10:12:19;101021.69;;;8.06;63.33
29371;BME280;16357;52.188;7.838;2023-12-14T10:15:00;101030.00;;;8.13;63.76
29371;BME280;16357;52.188;7.838;2023-12-14T10:17:26;101027.91;;;8.17;63.25
29371;BME280;16357;52.188;7.838;2023-12-14T10:19:59;101044.41;;;8.22;63.21
29371;BME280;16357;52.188;7.838;2023-12-14T10:22:29;101037.78;;;8.26;62.75
29371;BME280;16357;52.188;7.838;2023-12-14T10:24:59;101045.41;;;8.30;62.54
29371;BME280;16357;52.188;7.838;2023-12-14T10:27:27;101053.16;;;8.33;62.85
29371;BME280;16357;52.188;7.838;2023-12-14T10:29:55;101056.41;;;8.37;62.74
29371;BME280;16357;52.188;7.838;2023-12-14T10:32:23;101055.31;;;8.40;62.91
29371;BME280;16357;52.188;7.838;2023-12-14T10:34:50;101056.75;;;8.44;62.69
29371;BME280;16357;52.188;7.838;2023-12-14T10:37:17;101052.13;;;8.46;62.39
29371;BME280;16357;52.188;7.838;2023-12-14T10:39:45;101058.88;;;8.50;62.39
29371;BME280;16357;52.188;7.838;2023-12-14T10:42:13;101063.00;;;8.54;62.70
29371;BME280;16357;52.188;7.838;2023-12-14T10:44:48;101061.72;;;8.58;62.33
29371;BME280;16357;52.188;7.838;2023-12-14T10:47:39;101065.84;;;8.62;62.54
29371;BME280;16357;52.188;7.838;2023-12-14T10:50:11;101063.88;;;8.64;62.21
29371;BME280;16357;52.188;7.838;2023-12-14T10:52:41;101059.09;;;8.68;62.18
29371;BME280;16357;52.188;7.838;2023-12-14T10:55:13;101060.66;;;8.70;61.66
29371;BME280;16357;52.188;7.838;2023-12-14T10:57:41;101056.97;;;8.71;61.11
29371;BME280;16357;52.188;7.838;2023-12-14T11:00:10;101065.00;;;8.71;60.78
29371;BME280;16357;52.188;7.838;2023-12-14T11:02:41;101066.00;;;8.70;60.77
29371;BME280;16357;52.188;7.838;2023-12-14T11:05:12;101069.78;;;8.68;61.04
29371;BME280;16357;52.188;7.838;2023-12-14T11:07:47;101074.28;;;8.67;61.44
29371;BME280;16357;52.188;7.838;2023-12-14T11:10:15;101082.31;;;8.67;61.55
29371;BME280;16357;52.188;7.838;2023-12-14T11:12:56;101096.41;;;8.69;61.47
29371;BME280;16357;52.188;7.838;2023-12-14T11:15:24;101085.72;;;8.69;60.88
29371;BME280;16357;52.188;7.838;2023-12-14T11:23:13;101109.63;;;8.71;60.27
29371;BME280;16357;52.188;7.838;2023-12-14T11:25:40;101112.47;;;8.69;60.34
29371;BME280;16357;52.188;7.838;2023-12-14T11:28:12;101123.16;;;8.69;60.73
29371;BME280;16357;52.188;7.838;2023-12-14T11:30:40;101131.19;;;8.69;60.59
29371;BME280;16357;52.188;7.838;2023-12-14T11:33:20;101135.53;;;8.70;60.68
29371;BME280;16357;52.188;7.838;2023-12-14T11:35:47;101132.75;;;8.72;61.02
29371;BME280;16357;52.188;7.838;2023-12-14T11:38:14;101133.59;;;8.72;60.58
29371;BME280;16357;52.188;7.838;2023-12-14T11:40:42;101145.00;;;8.74;60.77
29371;BME280;16357;52.188;7.838;2023-12-14T11:43:09;101147.41;;;8.77;60.54
29371;BME280;16357;52.188;7.838;2023-12-14T11:45:37;101146.41;;;8.78;60.90
29371;BME280;16357;52.188;7.838;2023-12-14T11:48:06;101140.94;;;8.80;60.75
29371;BME280;16357;52.188;7.838;2023-12-14T11:50:34;101139.81;;;8.83;61.14
29371;BME280;16357;52.188;7.838;2023-12-14T11:53:02;101144.75;;;8.87;60.95
29371;BME280;16357;52.188;7.838;2023-12-14T11:55:30;101151.66;;;8.90;60.68
29371;BME280;16357;52.188;7.838;2023-12-14T11:57:57;101148.72;;;8.93;60.61
29371;BME280;16357;52.188;7.838;2023-12-14T12:00:26;101147.72;;;8.94;60.73
29371;BME280;16357;52.188;7.838;2023-12-14T12:03:07;101143.09;;;8.96;61.05
29371;BME280;16357;52.188;7.838;2023-12-14T12:05:44;101146.63;;;8.96;61.00
29371;BME280;16357;52.188;7.838;2023-12-14T12:08:12;101139.31;;;8.98;60.79
29371;BME280;16357;52.188;7.838;2023-12-14T12:10:42;101147.06;;;9.01;61.18
29371;BME280;16357;52.188;7.838;2023-12-14T12:15:39;101142.97;;;9.07;60.53
29371;BME280;16357;52.188;7.838;2023-12-14T12:18:07;101141.03;;;9.09;60.86
29371;BME280;16357;52.188;7.838;2023-12-14T12:20:34;101145.53;;;9.09;60.42
29371;BME280;16357;52.188;7.838;2023-12-14T12:23:02;101148.06;;;9.10;60.74
29371;BME280;16357;52.188;7.838;2023-12-14T12:25:30;101154.13;;;9.12;60.64
29371;BME280;16357;52.188;7.838;2023-12-14T12:27:58;101147.78;;;9.13;60.78
29371;BME280;16357;52.188;7.838;2023-12-14T12:30:25;101143.97;;;9.16;60.57
29371;BME280;16357;52.188;7.838;2023-12-14T12:32:52;101148.38;;;9.17;60.17
29371;BME280;16357;52.188;7.838;2023-12-14T12:35:19;101142.75;;;9.20;60.25
29371;BME280;16357;52.188;7.838;2023-12-14T12:37:46;101134.00;;;9.18;60.24
29371;BME280;16357;52.188;7.838;2023-12-14T12:40:13;101139.22;;;9.19;60.12
29371;BME280;16357;52.188;7.838;2023-12-14T12:42:42;101145.41;;;9.20;60.35
29371;BME280;16357;52.188;7.838;2023-12-14T12:45:09;101148.94;;;9.20;59.92
29371;BME280;16357;52.188;7.838;2023-12-14T12:47:37;101147.09;;;9.21;60.14
29371;BME280;16357;52.188;7.838;2023-12-14T12:50:05;101147.25;;;9.19;60.18
29371;BME280;16357;52.188;7.838;2023-12-14T12:52:32;101153.56;;;9.18;60.20
29371;BME280;16357;52.188;7.838;2023-12-14T12:54:58;101151.88;;;9.17;60.20
29371;BME280;16357;52.188;7.838;2023-12-14T12:57:26;101159.06;;;9.17;60.31
29371;BME280;16357;52.188;7.838;2023-12-14T12:59:53;101159.91;;;9.17;60.47
29371;BME280;16357;52.188;7.838;2023-12-14T13:02:19;101165.28;;;9.17;60.09
29371;BME280;16357;52.188;7.838;2023-12-14T13:04:46;101169.63;;;9.18;59.71
29371;BME280;16357;52.188;7.838;2023-12-14T13:07:13;101179.66;;;9.16;59.76
29371;BME280;16357;52.188;7.838;2023-12-14T13:09:40;101184.28;;;9.14;59.75